createdAt,value
2018-11-14T00:00:46.025Z,0.00
2018-11-14T00:01:45.992Z,0.00
2018-11-14T00:02:46.021Z,0.00
2018-11-14T00:03:45.988Z,0.00
2018-11-14T00:04:46.012Z,0.00
2018-11-14T00:05:45.984Z,0.00
2018-11-14T00:06:45.981Z,0.00
2018-11-14T00:07:45.979Z,0.00
2018-11-14T00:08:45.972Z,0.00
2018-11-14T00:09:46.044Z,0.00
2018-11-14T00:10:45.965Z,0.00
2018-11-14T00:11:45.963Z,0.00
2018-11-14T00:12:45.961Z,0.00
2018-11-14T00:13:45.985Z,0.00
2018-11-14T00:14:45.949Z,0.00
2018-11-14T00:15:45.973Z,0.00
2018-11-14T00:16:45.945Z,0.00
2018-11-14T00:17:45.941Z,0.00
2018-11-14T00:18:45.940Z,0.00
2018-11-14T00:19:45.961Z,0.00
2018-11-14T00:20:45.928Z,0.00
2018-11-14T00:21:46.224Z,0.00
2018-11-14T00:22:45.921Z,0.00
2018-11-14T00:23:45.950Z,0.00
2018-11-14T00:24:45.937Z,0.00
2018-11-14T00:25:45.943Z,0.00
2018-11-14T00:26:45.931Z,0.00
2018-11-14T00:27:45.915Z,0.00
2018-11-14T00:28:45.900Z,0.00
2018-11-14T00:29:45.927Z,0.00
2018-11-14T00:30:45.895Z,0.00
2018-11-14T00:31:45.892Z,0.00
2018-11-14T00:32:45.885Z,0.00
2018-11-14T00:33:45.884Z,0.00
2018-11-14T00:34:45.946Z,0.00
2018-11-14T00:35:46.029Z,0.00
2018-11-14T00:36:45.874Z,0.00
2018-11-14T00:37:45.869Z,0.00
2018-11-14T00:38:45.869Z,0.00
2018-11-14T00:39:45.890Z,0.00
2018-11-14T00:40:45.856Z,0.00
2018-11-14T00:41:45.857Z,0.00
2018-11-14T00:42:45.855Z,0.00
2018-11-14T00:43:45.850Z,0.00
2018-11-14T00:44:45.873Z,0.00
2018-11-14T00:45:45.838Z,0.00
2018-11-14T00:46:45.838Z,0.00
2018-11-14T00:47:45.837Z,0.00
2018-11-14T00:48:45.860Z,0.00
2018-11-14T00:49:45.825Z,0.00
2018-11-14T00:50:45.847Z,0.00
2018-11-14T00:51:45.817Z,0.00
2018-11-14T00:52:45.818Z,0.00
2018-11-14T00:53:45.810Z,0.00
2018-11-14T00:54:45.811Z,0.00
2018-11-14T00:55:45.835Z,0.00
2018-11-14T00:56:45.806Z,0.00
2018-11-14T00:57:45.798Z,0.00
2018-11-14T00:58:45.793Z,0.00
2018-11-14T00:59:45.790Z,0.00
2018-11-14T01:00:45.813Z,0.00
2018-11-14T01:01:45.804Z,0.00
2018-11-14T01:02:45.782Z,0.00
2018-11-14T01:03:45.774Z,0.00
2018-11-14T01:04:45.770Z,0.00
2018-11-14T01:05:45.790Z,0.00
2018-11-14T01:06:45.768Z,0.00
2018-11-14T01:07:45.762Z,0.00
2018-11-14T01:08:45.757Z,0.00
2018-11-14T01:09:45.753Z,0.00
2018-11-14T01:10:45.781Z,0.00
2018-11-14T01:11:45.747Z,0.00
2018-11-14T01:12:45.742Z,0.00
2018-11-14T01:13:45.740Z,0.00
2018-11-14T01:14:45.734Z,0.00
2018-11-14T01:15:45.759Z,0.00
2018-11-14T01:16:45.729Z,0.00
2018-11-14T01:17:45.726Z,0.00
2018-11-14T01:18:45.824Z,0.00
2018-11-14T01:19:45.723Z,0.00
2018-11-14T01:20:45.741Z,0.00
2018-11-14T01:21:45.917Z,0.00
2018-11-14T01:22:45.705Z,0.00
2018-11-14T01:23:45.699Z,0.00
2018-11-14T01:24:45.698Z,0.00
2018-11-14T01:25:45.721Z,0.00
2018-11-14T01:26:45.690Z,0.00
2018-11-14T01:27:45.685Z,0.00
2018-11-14T01:28:45.687Z,0.00
2018-11-14T01:29:45.690Z,0.00
2018-11-14T01:30:45.703Z,0.00
2018-11-14T01:31:45.667Z,0.00
2018-11-14T01:32:45.667Z,0.00
2018-11-14T01:33:45.663Z,0.00
2018-11-14T01:34:45.664Z,0.00
2018-11-14T01:35:45.689Z,0.00
2018-11-14T01:36:45.657Z,0.00
2018-11-14T01:37:45.652Z,0.00
2018-11-14T01:38:45.648Z,0.00
2018-11-14T01:39:45.639Z,0.00
2018-11-14T01:40:45.662Z,0.00
2018-11-14T01:41:45.635Z,0.00
2018-11-14T01:42:45.631Z,0.00
2018-11-14T01:43:45.630Z,0.00
2018-11-14T01:44:45.620Z,0.00
2018-11-14T01:45:45.647Z,0.00
2018-11-14T01:46:45.615Z,0.00
2018-11-14T01:47:45.617Z,0.00
2018-11-14T01:48:45.790Z,0.00
2018-11-14T01:49:45.609Z,0.00
2018-11-14T01:50:45.625Z,0.00
2018-11-14T01:51:45.594Z,0.00
2018-11-14T01:52:45.593Z,0.00
2018-11-14T01:53:45.591Z,0.00
2018-11-14T01:54:45.585Z,0.00
2018-11-14T01:55:45.606Z,0.00
2018-11-14T01:56:45.576Z,0.00
2018-11-14T01:57:45.571Z,0.00
2018-11-14T01:58:45.571Z,0.00
2018-11-14T01:59:45.563Z,0.00
2018-11-14T02:00:45.610Z,0.00
2018-11-14T02:01:45.557Z,0.00
2018-11-14T02:02:45.585Z,0.00
2018-11-14T02:03:45.584Z,0.00
2018-11-14T02:04:45.542Z,0.00
2018-11-14T02:05:45.538Z,0.00
2018-11-14T02:06:45.563Z,0.00
2018-11-14T02:07:45.530Z,0.00
2018-11-14T02:08:45.526Z,0.00
2018-11-14T02:09:45.524Z,0.00
2018-11-14T02:10:45.523Z,0.00
2018-11-14T02:11:45.544Z,0.00
2018-11-14T02:12:45.510Z,0.00
2018-11-14T02:13:45.508Z,0.00
2018-11-14T02:14:45.503Z,0.00
2018-11-14T02:15:45.503Z,0.00
2018-11-14T02:16:45.524Z,0.00
2018-11-14T02:17:45.489Z,0.00
2018-11-14T02:18:45.488Z,0.00
2018-11-14T02:19:45.483Z,0.00
2018-11-14T02:20:45.480Z,0.00
2018-11-14T02:21:45.507Z,0.00
2018-11-14T02:22:45.479Z,0.00
2018-11-14T02:23:45.468Z,0.00
2018-11-14T02:24:45.464Z,0.00
2018-11-14T02:25:45.456Z,0.00
2018-11-14T02:26:45.484Z,0.00
2018-11-14T02:27:45.450Z,0.00
2018-11-14T02:28:45.454Z,0.00
2018-11-14T02:29:45.450Z,0.00
2018-11-14T02:30:45.443Z,0.00
2018-11-14T02:31:45.464Z,0.00
2018-11-14T02:32:45.431Z,0.00
2018-11-14T02:33:45.431Z,0.00
2018-11-14T02:34:45.429Z,0.00
2018-11-14T02:35:45.417Z,0.00
2018-11-14T02:36:45.445Z,0.00
2018-11-14T02:37:45.411Z,0.00
2018-11-14T02:38:45.409Z,0.00
2018-11-14T02:39:45.404Z,0.00
2018-11-14T02:40:45.403Z,0.00
2018-11-14T02:41:45.424Z,0.00
2018-11-14T02:42:45.391Z,0.00
2018-11-14T02:43:45.386Z,0.00
2018-11-14T02:44:45.393Z,0.00
2018-11-14T02:45:45.376Z,0.00
2018-11-14T02:46:45.404Z,0.00
2018-11-14T02:47:45.371Z,0.00
2018-11-14T02:48:45.368Z,0.00
2018-11-14T02:49:45.363Z,0.00
2018-11-14T02:50:45.357Z,0.00
2018-11-14T02:51:45.385Z,0.00
2018-11-14T02:52:45.361Z,0.00
2018-11-14T02:53:45.353Z,0.00
2018-11-14T02:54:45.343Z,0.00
2018-11-14T02:55:45.339Z,0.00
2018-11-14T02:56:45.363Z,0.00
2018-11-14T02:57:45.327Z,0.00
2018-11-14T02:58:45.328Z,0.00
2018-11-14T02:59:45.319Z,0.00
2018-11-14T03:00:45.316Z,0.00
2018-11-14T03:01:45.341Z,0.00
2018-11-14T03:02:45.305Z,0.00
2018-11-14T03:03:45.305Z,0.00
2018-11-14T03:04:45.300Z,0.00
2018-11-14T03:05:45.300Z,0.00
2018-11-14T03:06:45.320Z,0.00
2018-11-14T03:07:45.285Z,0.00
2018-11-14T03:08:45.432Z,0.00
2018-11-14T03:09:45.280Z,0.00
2018-11-14T03:10:45.272Z,0.00
2018-11-14T03:11:45.295Z,0.00
2018-11-14T03:12:45.265Z,0.00
2018-11-14T03:13:45.259Z,0.00
2018-11-14T03:14:45.258Z,0.00
2018-11-14T03:15:45.258Z,0.00
2018-11-14T03:16:45.267Z,0.00
2018-11-14T03:17:45.245Z,0.00
2018-11-14T03:18:45.240Z,0.00
2018-11-14T03:19:45.232Z,0.00
2018-11-14T03:20:45.229Z,0.00
2018-11-14T03:21:45.252Z,0.00
2018-11-14T03:22:45.225Z,0.00
2018-11-14T03:23:45.217Z,0.00
2018-11-14T03:24:45.214Z,0.00
2018-11-14T03:25:45.212Z,0.00
2018-11-14T03:26:45.231Z,0.00
2018-11-14T03:27:45.201Z,0.00
2018-11-14T03:28:45.195Z,0.00
2018-11-14T03:29:45.190Z,0.00
2018-11-14T03:30:45.189Z,0.00
2018-11-14T03:31:45.209Z,0.00
2018-11-14T03:32:45.175Z,0.00
2018-11-14T03:33:45.173Z,0.00
2018-11-14T03:34:45.170Z,0.00
2018-11-14T03:35:45.165Z,0.00
2018-11-14T03:36:45.187Z,0.00
2018-11-14T03:37:45.157Z,0.00
2018-11-14T03:38:45.155Z,0.00
2018-11-14T03:39:45.145Z,0.00
2018-11-14T03:40:45.145Z,0.00
2018-11-14T03:41:45.165Z,0.00
2018-11-14T03:42:45.146Z,0.00
2018-11-14T03:43:45.131Z,0.00
2018-11-14T03:44:45.127Z,0.00
2018-11-14T03:45:45.120Z,0.00
2018-11-14T03:46:45.145Z,0.00
2018-11-14T03:47:45.110Z,0.00
2018-11-14T03:48:45.119Z,0.00
2018-11-14T03:49:45.097Z,0.00
2018-11-14T03:50:45.097Z,0.00
2018-11-14T03:51:45.125Z,0.00
2018-11-14T03:52:45.091Z,0.00
2018-11-14T03:53:45.085Z,0.00
2018-11-14T03:54:45.081Z,0.00
2018-11-14T03:55:45.079Z,0.00
2018-11-14T03:56:45.102Z,0.00
2018-11-14T03:57:45.072Z,0.00
2018-11-14T03:58:45.065Z,0.00
2018-11-14T03:59:45.066Z,0.00
2018-11-14T04:00:45.055Z,0.00
2018-11-14T04:01:45.045Z,0.00
2018-11-14T04:02:45.076Z,0.00
2018-11-14T04:03:45.041Z,0.00
2018-11-14T04:04:45.037Z,0.00
2018-11-14T04:05:45.033Z,0.00
2018-11-14T04:06:45.026Z,0.00
2018-11-14T04:07:45.051Z,0.00
2018-11-14T04:08:45.014Z,0.00
2018-11-14T04:09:45.014Z,0.00
2018-11-14T04:10:45.012Z,0.00
2018-11-14T04:11:45.005Z,0.00
2018-11-14T04:12:45.029Z,0.00
2018-11-14T04:13:44.994Z,0.00
2018-11-14T04:14:44.998Z,0.00
2018-11-14T04:15:44.989Z,0.00
2018-11-14T04:16:45.009Z,0.00
2018-11-14T04:17:44.982Z,0.00
2018-11-14T04:18:44.977Z,0.00
2018-11-14T04:19:44.969Z,0.00
2018-11-14T04:20:44.965Z,0.00
2018-11-14T04:21:44.993Z,0.00
2018-11-14T04:22:44.957Z,0.00
2018-11-14T04:23:44.955Z,0.00
2018-11-14T04:24:44.949Z,0.00
2018-11-14T04:25:44.941Z,0.00
2018-11-14T04:26:44.973Z,0.00
2018-11-14T04:27:44.931Z,0.00
2018-11-14T04:28:44.958Z,0.00
2018-11-14T04:29:44.934Z,0.00
2018-11-14T04:30:44.922Z,0.00
2018-11-14T04:31:45.644Z,0.00
2018-11-14T04:32:44.945Z,0.00
2018-11-14T04:33:44.906Z,0.00
2018-11-14T04:34:44.899Z,0.00
2018-11-14T04:35:44.901Z,0.00
2018-11-14T04:36:44.889Z,0.00
2018-11-14T04:37:44.916Z,0.00
2018-11-14T04:38:44.882Z,0.00
2018-11-14T04:39:44.877Z,0.00
2018-11-14T04:40:44.873Z,0.00
2018-11-14T04:41:44.871Z,0.00
2018-11-14T04:42:44.895Z,0.00
2018-11-14T04:43:44.856Z,0.00
2018-11-14T04:44:44.856Z,0.00
2018-11-14T04:45:44.853Z,0.00
2018-11-14T04:46:44.850Z,0.00
2018-11-14T04:47:44.877Z,0.00
2018-11-14T04:48:44.835Z,0.00
2018-11-14T04:49:44.839Z,0.00
2018-11-14T04:50:44.822Z,0.00
2018-11-14T04:51:44.825Z,0.00
2018-11-14T04:52:44.846Z,0.00
2018-11-14T04:53:44.806Z,0.00
2018-11-14T04:54:44.811Z,0.00
2018-11-14T04:55:44.806Z,0.00
2018-11-14T04:56:44.825Z,0.00
2018-11-14T04:57:44.799Z,0.00
2018-11-14T04:58:44.792Z,0.00
2018-11-14T04:59:44.788Z,0.00
2018-11-14T05:00:44.782Z,0.00
2018-11-14T05:01:44.807Z,0.00
2018-11-14T05:02:44.771Z,0.00
2018-11-14T05:03:44.768Z,0.00
2018-11-14T05:04:44.763Z,0.00
2018-11-14T05:05:44.759Z,0.00
2018-11-14T05:06:44.785Z,0.00
2018-11-14T05:07:44.750Z,0.00
2018-11-14T05:08:44.748Z,0.00
2018-11-14T05:09:44.742Z,0.00
2018-11-14T05:10:44.734Z,0.00
2018-11-14T05:11:44.757Z,0.00
2018-11-14T05:12:44.759Z,0.00
2018-11-14T05:13:44.722Z,0.00
2018-11-14T05:14:44.719Z,0.00
2018-11-14T05:15:44.711Z,0.00
2018-11-14T05:16:44.735Z,0.00
2018-11-14T05:17:44.702Z,0.00
2018-11-14T05:18:44.699Z,0.00
2018-11-14T05:19:44.701Z,0.00
2018-11-14T05:20:44.689Z,0.00
2018-11-14T05:21:44.710Z,0.00
2018-11-14T05:22:44.731Z,0.00
2018-11-14T05:23:44.678Z,0.00
2018-11-14T05:24:44.786Z,0.00
2018-11-14T05:25:44.666Z,0.00
2018-11-14T05:26:44.690Z,0.00
2018-11-14T05:27:44.654Z,0.00
2018-11-14T05:28:44.654Z,0.00
2018-11-14T05:29:44.648Z,0.00
2018-11-14T05:30:44.642Z,0.00
2018-11-14T05:31:44.700Z,0.00
2018-11-14T05:32:44.635Z,0.00
2018-11-14T05:33:44.632Z,0.00
2018-11-14T05:34:44.627Z,0.00
2018-11-14T05:35:44.629Z,0.00
2018-11-14T05:36:44.649Z,0.00
2018-11-14T05:37:44.614Z,0.00
2018-11-14T05:38:44.605Z,0.00
2018-11-14T05:39:44.745Z,0.00
2018-11-14T05:40:44.601Z,0.00
2018-11-14T05:41:44.618Z,0.00
2018-11-14T05:42:44.586Z,0.00
2018-11-14T05:43:44.582Z,0.00
2018-11-14T05:44:44.582Z,0.00
2018-11-14T05:45:44.574Z,0.00
2018-11-14T05:46:44.591Z,0.00
2018-11-14T05:47:44.563Z,0.00
2018-11-14T05:48:44.619Z,4.00
2018-11-14T05:49:44.557Z,4.00
2018-11-14T05:50:44.553Z,0.00
2018-11-14T05:51:44.569Z,0.00
2018-11-14T05:52:44.538Z,4.00
2018-11-14T05:53:44.535Z,4.00
2018-11-14T05:54:44.599Z,4.00
2018-11-14T05:55:44.520Z,4.00
2018-11-14T05:56:44.545Z,4.00
2018-11-14T05:57:44.514Z,8.00
2018-11-14T05:58:44.510Z,8.00
2018-11-14T05:59:44.503Z,12.00
2018-11-14T06:00:44.497Z,12.00
2018-11-14T06:01:44.529Z,16.00
2018-11-14T06:02:44.490Z,20.00
2018-11-14T06:03:44.482Z,24.00
2018-11-14T06:04:44.480Z,28.00
2018-11-14T06:05:44.479Z,32.00
2018-11-14T06:06:44.495Z,40.00
2018-11-14T06:07:44.462Z,44.00
2018-11-14T06:08:44.461Z,52.00
2018-11-14T06:09:45.086Z,64.00
2018-11-14T06:10:44.463Z,72.00
2018-11-14T06:11:44.466Z,88.00
2018-11-14T06:12:44.434Z,100.00
2018-11-14T06:13:44.432Z,116.00
2018-11-14T06:14:44.427Z,132.00
2018-11-14T06:15:44.446Z,148.00
2018-11-14T06:16:44.415Z,168.00
2018-11-14T06:17:44.413Z,192.00
2018-11-14T06:18:44.430Z,216.00
2018-11-14T06:19:44.399Z,240.00
2018-11-14T06:20:44.390Z,272.00
2018-11-14T06:21:44.463Z,304.00
2018-11-14T06:22:44.383Z,336.00
2018-11-14T06:23:44.433Z,368.00
2018-11-14T06:24:44.371Z,408.00
2018-11-14T06:25:44.396Z,448.00
2018-11-14T06:26:44.357Z,488.00
2018-11-14T06:27:44.355Z,528.00
2018-11-14T06:28:44.347Z,572.00
2018-11-14T06:29:44.366Z,620.00
2018-11-14T06:30:44.368Z,668.00
2018-11-14T06:31:44.331Z,716.00
2018-11-14T06:32:44.322Z,764.00
2018-11-14T06:33:44.320Z,816.00
2018-11-14T06:34:44.312Z,868.00
2018-11-14T06:35:44.341Z,920.00
2018-11-14T06:36:44.303Z,972.00
2018-11-14T06:37:44.296Z,1028.00
2018-11-14T06:38:44.291Z,1080.00
2018-11-14T06:39:44.287Z,1136.00
2018-11-14T06:40:44.307Z,1196.00
2018-11-14T06:41:44.315Z,1252.00
2018-11-14T06:42:44.268Z,1316.00
2018-11-14T06:43:44.263Z,1380.00
2018-11-14T06:44:44.255Z,1444.00
2018-11-14T06:45:44.558Z,1508.00
2018-11-14T06:46:44.245Z,1576.00
2018-11-14T06:47:44.239Z,1652.00
2018-11-14T06:48:44.267Z,1728.00
2018-11-14T06:49:44.227Z,1808.00
2018-11-14T06:50:44.253Z,1896.00
2018-11-14T06:51:44.219Z,1992.00
2018-11-14T06:52:44.211Z,2092.00
2018-11-14T06:53:44.206Z,2192.00
2018-11-14T06:54:44.199Z,2292.00
2018-11-14T06:55:44.291Z,2384.00
2018-11-14T06:56:44.187Z,2476.00
2018-11-14T06:57:44.183Z,2556.00
2018-11-14T06:58:44.257Z,2628.00
2018-11-14T06:59:44.236Z,2688.00
2018-11-14T07:00:44.195Z,2736.00
2018-11-14T07:01:44.163Z,2788.00
2018-11-14T07:02:44.155Z,2820.00
2018-11-14T07:03:44.147Z,2848.00
2018-11-14T07:04:44.143Z,2872.00
2018-11-14T07:05:44.285Z,2888.00
2018-11-14T07:06:44.131Z,2892.00
2018-11-14T07:07:44.127Z,2888.00
2018-11-14T07:08:44.124Z,2872.00
2018-11-14T07:09:44.115Z,2856.00
2018-11-14T07:10:44.139Z,2832.00
2018-11-14T07:11:44.102Z,2812.00
2018-11-14T07:12:44.099Z,2800.00
2018-11-14T07:13:44.095Z,2776.00
2018-11-14T07:14:44.091Z,2764.00
2018-11-14T07:15:44.111Z,2744.00
2018-11-14T07:16:44.081Z,2732.00
2018-11-14T07:17:44.114Z,2724.00
2018-11-14T07:18:44.076Z,2736.00
2018-11-14T07:19:45.008Z,2764.00
2018-11-14T07:20:45.143Z,2808.00
2018-11-14T07:21:45.513Z,2840.00
2018-11-14T07:22:44.110Z,2872.00
2018-11-14T07:23:44.378Z,2904.00
2018-11-14T07:24:44.192Z,2956.00
2018-11-14T07:25:44.060Z,3044.00
2018-11-14T07:26:44.027Z,3212.00
2018-11-14T07:27:44.027Z,3328.00
2018-11-14T07:28:44.016Z,3604.00
2018-11-14T07:29:44.014Z,3956.00
2018-11-14T07:30:44.036Z,4260.00
2018-11-14T07:31:44.000Z,4640.00
2018-11-14T07:32:43.996Z,4604.00
2018-11-14T07:33:43.997Z,4428.00
2018-11-14T07:34:43.988Z,4304.00
2018-11-14T07:35:44.016Z,4312.00
2018-11-14T07:36:43.987Z,4584.00
2018-11-14T07:37:44.020Z,4816.00
2018-11-14T07:38:43.975Z,5020.00
2018-11-14T07:39:43.968Z,5432.00
2018-11-14T07:40:43.991Z,5340.00
2018-11-14T07:41:43.959Z,5188.00
2018-11-14T07:42:43.954Z,5272.00
2018-11-14T07:43:44.053Z,5300.00
2018-11-14T07:44:43.951Z,5724.00
2018-11-14T07:45:43.973Z,5796.00
2018-11-14T07:46:43.943Z,5796.00
2018-11-14T07:47:43.963Z,5788.00
2018-11-14T07:48:43.938Z,5772.00
2018-11-14T07:49:43.949Z,5816.00
2018-11-14T07:50:43.968Z,5876.00
2018-11-14T07:51:43.933Z,5936.00
2018-11-14T07:52:43.932Z,6144.00
2018-11-14T07:53:43.932Z,7064.00
2018-11-14T07:54:44.034Z,6592.00
2018-11-14T07:55:43.932Z,5744.00
2018-11-14T07:56:43.963Z,5060.00
2018-11-14T07:57:43.930Z,5180.00
2018-11-14T07:58:43.929Z,5196.00
2018-11-14T07:59:43.932Z,5336.00
2018-11-14T08:00:43.935Z,5440.00
2018-11-14T08:01:43.964Z,5740.00
2018-11-14T08:02:43.933Z,6100.00
2018-11-14T08:03:43.938Z,6928.00
2018-11-14T08:04:43.936Z,5892.00
2018-11-14T08:05:43.967Z,5464.00
2018-11-14T08:06:43.935Z,5800.00
2018-11-14T08:07:44.005Z,5828.00
2018-11-14T08:08:43.941Z,5872.00
2018-11-14T08:09:43.944Z,5992.00
2018-11-14T08:10:43.945Z,5916.00
2018-11-14T08:11:43.976Z,6092.00
2018-11-14T08:12:43.949Z,6152.00
2018-11-14T08:13:43.951Z,6164.00
2018-11-14T08:14:43.953Z,6152.00
2018-11-14T08:15:43.958Z,6136.00
2018-11-14T08:16:43.988Z,5500.00
2018-11-14T08:17:43.960Z,6192.00
2018-11-14T08:18:43.994Z,6264.00
2018-11-14T08:19:43.961Z,6124.00
2018-11-14T08:20:43.968Z,6360.00
2018-11-14T08:21:43.998Z,6472.00
2018-11-14T08:22:43.986Z,6520.00
2018-11-14T08:23:44.018Z,6572.00
2018-11-14T08:24:43.995Z,6640.00
2018-11-14T08:25:43.993Z,6680.00
2018-11-14T08:26:44.021Z,6716.00
2018-11-14T08:27:43.997Z,6760.00
2018-11-14T08:28:44.002Z,6816.00
2018-11-14T08:29:44.005Z,6860.00
2018-11-14T08:30:44.124Z,6940.00
2018-11-14T08:31:44.050Z,6984.00
2018-11-14T08:32:44.017Z,7020.00
2018-11-14T08:33:44.026Z,7068.00
2018-11-14T08:34:44.027Z,7124.00
2018-11-14T08:35:44.037Z,7200.00
2018-11-14T08:36:44.070Z,7276.00
2018-11-14T08:37:44.051Z,7320.00
2018-11-14T08:38:44.058Z,7348.00
2018-11-14T08:39:44.060Z,7392.00
2018-11-14T08:40:44.186Z,7452.00
2018-11-14T08:41:44.105Z,7528.00
2018-11-14T08:42:44.083Z,7576.00
2018-11-14T08:43:44.085Z,7628.00
2018-11-14T08:44:44.093Z,7732.00
2018-11-14T08:45:44.101Z,7828.00
2018-11-14T08:46:44.133Z,7884.00
2018-11-14T08:47:44.114Z,7916.00
2018-11-14T08:48:44.126Z,7964.00
2018-11-14T08:49:44.134Z,8032.00
2018-11-14T08:50:44.169Z,8116.00
2018-11-14T08:51:44.145Z,8172.00
2018-11-14T08:52:44.155Z,8200.00
2018-11-14T08:53:44.163Z,8188.00
2018-11-14T08:54:44.173Z,8272.00
2018-11-14T08:55:44.214Z,8368.00
2018-11-14T08:56:44.193Z,8428.00
2018-11-14T08:57:44.203Z,8436.00
2018-11-14T08:58:44.205Z,8432.00
2018-11-14T08:59:44.240Z,8620.00
2018-11-14T09:00:44.222Z,8492.00
2018-11-14T09:01:44.255Z,8636.00
2018-11-14T09:02:44.241Z,8732.00
2018-11-14T09:03:44.251Z,8780.00
2018-11-14T09:04:44.284Z,8968.00
2018-11-14T09:05:44.271Z,9128.00
2018-11-14T09:06:44.309Z,9256.00
2018-11-14T09:07:44.399Z,9324.00
2018-11-14T09:08:44.329Z,9212.00
2018-11-14T09:09:44.307Z,9120.00
2018-11-14T09:10:44.315Z,9388.00
2018-11-14T09:11:44.355Z,9700.00
2018-11-14T09:12:44.351Z,9764.00
2018-11-14T09:13:44.349Z,9796.00
2018-11-14T09:14:44.379Z,9880.00
2018-11-14T09:15:44.370Z,9784.00
2018-11-14T09:16:44.401Z,10116.00
2018-11-14T09:17:44.383Z,10164.00
2018-11-14T09:18:44.465Z,10480.00
2018-11-14T09:19:44.405Z,10620.00
2018-11-14T09:20:44.444Z,10952.00
2018-11-14T09:21:44.431Z,10880.00
2018-11-14T09:22:44.442Z,10868.00
2018-11-14T09:23:44.521Z,10704.00
2018-11-14T09:24:44.467Z,11340.00
2018-11-14T09:25:44.502Z,12176.00
2018-11-14T09:26:44.483Z,13020.00
2018-11-14T09:27:44.498Z,13708.00
2018-11-14T09:28:44.503Z,15556.00
2018-11-14T09:29:44.519Z,17728.00
2018-11-14T09:30:44.559Z,20128.00
2018-11-14T09:31:44.538Z,22400.00
2018-11-14T09:32:44.552Z,24192.00
2018-11-14T09:33:44.562Z,25280.00
2018-11-14T09:34:44.695Z,24832.00
2018-11-14T09:35:44.614Z,25312.00
2018-11-14T09:36:44.595Z,27488.00
2018-11-14T09:37:44.610Z,29504.00
2018-11-14T09:38:44.621Z,29536.00
2018-11-14T09:39:44.632Z,30240.00
2018-11-14T09:40:44.703Z,31264.00
2018-11-14T09:41:44.653Z,30464.00
2018-11-14T09:42:44.668Z,31424.00
2018-11-14T09:43:44.725Z,34080.00
2018-11-14T09:44:44.691Z,34432.00
2018-11-14T09:45:44.733Z,34400.00
2018-11-14T09:46:44.719Z,32096.00
2018-11-14T09:47:44.730Z,32928.00
2018-11-14T09:48:44.741Z,32128.00
2018-11-14T09:49:44.753Z,30144.00
2018-11-14T09:50:44.797Z,26208.00
2018-11-14T09:51:44.780Z,25792.00
2018-11-14T09:52:44.789Z,31136.00
2018-11-14T09:53:44.801Z,36896.00
2018-11-14T09:54:44.814Z,37568.00
2018-11-14T09:55:44.854Z,33408.00
2018-11-14T09:56:44.868Z,30016.00
2018-11-14T09:57:44.850Z,28992.00
2018-11-14T09:58:44.872Z,30080.00
2018-11-14T09:59:44.871Z,30304.00
2018-11-14T10:00:44.958Z,32352.00
2018-11-14T10:01:44.895Z,32288.00
2018-11-14T10:02:44.948Z,32928.00
2018-11-14T10:03:44.918Z,34816.00
2018-11-14T10:04:44.926Z,34464.00
2018-11-14T10:05:44.971Z,38752.00
2018-11-14T10:06:44.951Z,37088.00
2018-11-14T10:07:45.025Z,35616.00
2018-11-14T10:08:45.018Z,37216.00
2018-11-14T10:09:44.984Z,38112.00
2018-11-14T10:10:45.028Z,39136.00
2018-11-14T10:11:45.008Z,37664.00
2018-11-14T10:12:45.021Z,34432.00
2018-11-14T10:13:45.031Z,32256.00
2018-11-14T10:14:45.043Z,31616.00
2018-11-14T10:15:45.297Z,32608.00
2018-11-14T10:16:45.064Z,34848.00
2018-11-14T10:17:45.075Z,35424.00
2018-11-14T10:18:45.087Z,34336.00
2018-11-14T10:19:45.097Z,33920.00
2018-11-14T10:20:45.142Z,33984.00
2018-11-14T10:21:45.168Z,33248.00
2018-11-14T10:22:45.137Z,34400.00
2018-11-14T10:23:45.145Z,37856.00
2018-11-14T10:24:45.159Z,40192.00
2018-11-14T10:25:45.202Z,39136.00
2018-11-14T10:26:45.183Z,39808.00
2018-11-14T10:27:45.193Z,40992.00
2018-11-14T10:28:45.246Z,43072.00
2018-11-14T10:29:45.228Z,44800.00
2018-11-14T10:30:45.268Z,45152.00
2018-11-14T10:31:45.334Z,44096.00
2018-11-14T10:32:45.260Z,39072.00
2018-11-14T10:33:45.271Z,38880.00
2018-11-14T10:34:45.287Z,37536.00
2018-11-14T10:35:45.327Z,37280.00
2018-11-14T10:36:45.316Z,39648.00
2018-11-14T10:37:45.323Z,42112.00
2018-11-14T10:38:45.338Z,43040.00
2018-11-14T10:39:46.064Z,41088.00
2018-11-14T10:40:45.394Z,38816.00
2018-11-14T10:41:45.419Z,40096.00
2018-11-14T10:42:45.398Z,40736.00
2018-11-14T10:43:45.398Z,40352.00
2018-11-14T10:44:45.415Z,41280.00
2018-11-14T10:45:45.456Z,40160.00
2018-11-14T10:46:45.474Z,38816.00
2018-11-14T10:47:45.446Z,39328.00
2018-11-14T10:48:45.580Z,39136.00
2018-11-14T10:49:45.481Z,38560.00
2018-11-14T10:50:45.539Z,39008.00
2018-11-14T10:51:45.501Z,41408.00
2018-11-14T10:52:45.516Z,41280.00
2018-11-14T10:53:45.532Z,39808.00
2018-11-14T10:54:45.564Z,38912.00
2018-11-14T10:55:45.584Z,38976.00
2018-11-14T10:56:45.567Z,38240.00
2018-11-14T10:57:45.587Z,37792.00
2018-11-14T10:58:45.595Z,37568.00
2018-11-14T10:59:45.608Z,39296.00
2018-11-14T11:00:45.659Z,40384.00
2018-11-14T11:01:45.669Z,41696.00
2018-11-14T11:02:45.644Z,41440.00
2018-11-14T11:03:45.655Z,45216.00
2018-11-14T11:04:45.675Z,41344.00
2018-11-14T11:05:45.717Z,36800.00
2018-11-14T11:06:45.696Z,37472.00
2018-11-14T11:07:45.759Z,40832.00
2018-11-14T11:08:45.829Z,41632.00
2018-11-14T11:09:45.740Z,39808.00
2018-11-14T11:10:45.776Z,37760.00
2018-11-14T11:11:45.763Z,30880.00
2018-11-14T11:12:45.781Z,25760.00
2018-11-14T11:13:45.850Z,28768.00
2018-11-14T11:14:45.802Z,25984.00
2018-11-14T11:15:45.849Z,24320.00
2018-11-14T11:16:45.836Z,18688.00
2018-11-14T11:17:45.844Z,19712.00
2018-11-14T11:18:45.852Z,21728.00
2018-11-14T11:19:45.871Z,22656.00
2018-11-14T11:20:45.913Z,20896.00
2018-11-14T11:21:45.897Z,21984.00
2018-11-14T11:22:45.908Z,24512.00
2018-11-14T11:23:45.921Z,26208.00
2018-11-14T11:24:45.961Z,25824.00
2018-11-14T11:25:45.972Z,24256.00
2018-11-14T11:26:45.984Z,25888.00
2018-11-14T11:27:45.968Z,25536.00
2018-11-14T11:28:46.043Z,25568.00
2018-11-14T11:29:45.995Z,25152.00
2018-11-14T11:30:46.093Z,24864.00
2018-11-14T11:31:46.059Z,25440.00
2018-11-14T11:32:46.034Z,25504.00
2018-11-14T11:33:46.048Z,19168.00
2018-11-14T11:34:46.060Z,16212.00
2018-11-14T11:35:46.103Z,16992.00
2018-11-14T11:36:46.112Z,17408.00
2018-11-14T11:37:46.104Z,21824.00
2018-11-14T11:38:46.113Z,23584.00
2018-11-14T11:39:46.125Z,27872.00
2018-11-14T11:40:46.137Z,26272.00
2018-11-14T11:41:46.178Z,27520.00
2018-11-14T11:42:46.178Z,27136.00
2018-11-14T11:43:46.173Z,28416.00
2018-11-14T11:44:46.185Z,29312.00
2018-11-14T11:45:46.199Z,29344.00
2018-11-14T11:46:46.236Z,29088.00
2018-11-14T11:47:46.225Z,27136.00
2018-11-14T11:48:46.370Z,30624.00
2018-11-14T11:49:46.251Z,31904.00
2018-11-14T11:50:46.292Z,30976.00
2018-11-14T11:51:46.301Z,29472.00
2018-11-14T11:52:46.334Z,28064.00
2018-11-14T11:53:46.309Z,30176.00
2018-11-14T11:54:46.312Z,27488.00
2018-11-14T11:55:46.353Z,21632.00
2018-11-14T11:56:46.370Z,19936.00
2018-11-14T11:57:46.356Z,16872.00
2018-11-14T11:58:46.373Z,23328.00
2018-11-14T11:59:46.457Z,28608.00
2018-11-14T12:00:46.495Z,27776.00
2018-11-14T12:01:46.425Z,26880.00
2018-11-14T12:02:46.407Z,25664.00
2018-11-14T12:03:46.424Z,25664.00
2018-11-14T12:04:46.434Z,25344.00
2018-11-14T12:05:46.517Z,24544.00
2018-11-14T12:06:46.454Z,24896.00
2018-11-14T12:07:46.470Z,24960.00
2018-11-14T12:08:46.478Z,23808.00
2018-11-14T12:09:46.487Z,20704.00
2018-11-14T12:10:46.699Z,24416.00
2018-11-14T12:11:46.511Z,25120.00
2018-11-14T12:12:46.587Z,26752.00
2018-11-14T12:13:46.558Z,26976.00
2018-11-14T12:14:46.545Z,26016.00
2018-11-14T12:15:46.588Z,25888.00
2018-11-14T12:16:46.571Z,24960.00
2018-11-14T12:17:46.612Z,23040.00
2018-11-14T12:18:46.596Z,24640.00
2018-11-14T12:19:46.608Z,24672.00
2018-11-14T12:20:46.640Z,25024.00
2018-11-14T12:21:46.627Z,26048.00
2018-11-14T12:22:46.639Z,26432.00
2018-11-14T12:23:46.692Z,25952.00
2018-11-14T12:24:46.663Z,26816.00
2018-11-14T12:25:46.710Z,21440.00
2018-11-14T12:26:46.687Z,25248.00
2018-11-14T12:27:46.695Z,26816.00
2018-11-14T12:28:46.709Z,27456.00
2018-11-14T12:29:46.740Z,26848.00
2018-11-14T12:30:46.860Z,26656.00
2018-11-14T12:31:46.740Z,26848.00
2018-11-14T12:32:46.804Z,27424.00
2018-11-14T12:33:46.767Z,27904.00